Time;durP1;ratioP1;P1;durP2;ratioP2;P2;SDS_P1;SDS_P2;PMS_P1;PMS_P2;Temp;Humidity;BMP_temperature;BMP_pressure;BME280_temperature;BME280_humidity;BME280_pressure;Samples;Min_cycle;Max_cycle;Signal;HPM_P1;HPM_P2
2022/09/15 00:00:52;;;;;;;4.72;1.13;;;;;;;20.24;100.00;99103.25;5110890;28;20035;-71
2022/09/15 00:03:19;;;;;;;1.60;1.00;;;;;;;20.23;100.00;99102.38;5111275;28;20501;-71
2022/09/15 00:05:44;;;;;;;11.35;1.50;;;;;;;20.21;100.00;99099.00;5110855;28;20024;-71
2022/09/15 00:08:12;;;;;;;4.03;1.15;;;;;;;20.22;100.00;99095.28;5111047;28;20411;-71
2022/09/15 00:10:38;;;;;;;4.20;1.27;;;;;;;20.15;100.00;99077.91;5110710;28;20497;-71
2022/09/15 00:13:04;;;;;;;3.17;1.25;;;;;;;20.22;100.00;99083.63;5110746;28;20035;-71
2022/09/15 00:15:30;;;;;;;2.45;1.13;;;;;;;20.24;100.00;99087.06;5110884;28;20031;-71
2022/09/15 00:17:55;;;;;;;4.07;1.45;;;;;;;20.27;100.00;99095.75;5110567;28;20031;-72
2022/09/15 00:20:21;;;;;;;3.38;1.25;;;;;;;20.22;100.00;99084.50;5111211;28;20051;-71
2022/09/15 00:22:47;;;;;;;3.85;1.27;;;;;;;20.27;100.00;99087.66;5092543;28;20055;-71
2022/09/15 00:25:13;;;;;;;4.88;1.73;;;;;;;20.25;100.00;99089.63;5110250;28;20069;-71
2022/09/15 00:27:39;;;;;;;2.42;1.50;;;;;;;20.26;100.00;99085.06;5110541;28;20165;-71
2022/09/15 00:30:06;;;;;;;1.88;1.27;;;;;;;20.24;100.00;99087.91;5091995;28;20057;-71
2022/09/15 00:32:32;;;;;;;6.47;1.60;;;;;;;20.25;100.00;99084.22;5095760;28;20076;-71
2022/09/15 00:34:58;;;;;;;2.97;1.38;;;;;;;20.24;100.00;99082.50;5090209;28;20152;-71
2022/09/15 00:37:24;;;;;;;4.35;1.45;;;;;;;20.22;100.00;99075.50;5071867;28;20055;-71
2022/09/15 00:39:51;;;;;;;2.97;1.70;;;;;;;20.25;100.00;99084.22;5089841;28;20391;-71
2022/09/15 00:42:19;;;;;;;3.58;1.40;;;;;;;20.27;100.00;99084.94;5090124;28;20024;-71
2022/09/15 00:44:59;;;;;;;4.20;1.83;;;;;;;20.28;100.00;99088.50;5089228;28;20392;-71
2022/09/15 00:47:30;;;;;;;2.25;1.25;;;;;;;20.21;100.00;99077.38;5097420;28;20023;-71
2022/09/15 00:50:03;;;;;;;2.92;1.33;;;;;;;20.22;100.00;99079.09;5108959;28;20027;-71
2022/09/15 00:52:37;;;;;;;7.55;1.55;;;;;;;20.22;100.00;99081.78;5108864;28;20367;-72
2022/09/15 00:55:26;;;;;;;3.17;1.60;;;;;;;20.21;100.00;99077.38;5108614;28;20515;-72
2022/09/15 00:57:55;;;;;;;3.55;1.63;;;;;;;20.26;100.00;99068.88;5107608;28;20039;-72
2022/09/15 01:00:54;;;;;;;5.68;1.50;;;;;;;20.27;100.00;99071.44;5110596;28;20031;-71
2022/09/15 01:03:20;;;;;;;3.40;1.60;;;;;;;20.28;100.00;99067.75;5092465;28;20040;-71
2022/09/15 01:05:53;;;;;;;7.30;1.50;;;;;;;20.27;100.00;99075.97;5093990;28;20031;-71
2022/09/15 01:08:31;;;;;;;2.75;1.27;;;;;;;20.22;100.00;99062.00;5092338;28;20039;-71
2022/09/15 01:10:57;;;;;;;9.23;1.70;;;;;;;20.15;100.00;99053.59;5089492;28;20036;-71
2022/09/15 01:13:23;;;;;;;2.83;1.40;;;;;;;20.16;100.00;99062.56;5089463;28;20078;-71
2022/09/15 01:16:07;;;;;;;4.78;1.63;;;;;;;20.16;100.00;99063.44;5089351;28;20052;-71
2022/09/15 01:18:49;;;;;;;4.32;1.50;;;;;;;20.14;100.00;99054.56;5107877;28;20431;-71
2022/09/15 01:21:41;;;;;;;2.88;1.30;;;;;;;20.09;100.00;99061.34;5098748;28;20036;-71
2022/09/15 01:24:27;;;;;;;3.42;1.40;;;;;;;20.10;100.00;99063.91;5089381;28;20075;-72
2022/09/15 01:27:02;;;;;;;2.78;1.33;;;;;;;20.05;100.00;99063.44;5088237;28;20239;-71
2022/09/15 01:29:39;;;;;;;6.75;1.50;;;;;;;20.06;100.00;99061.59;5089437;28;20030;-72
2022/09/15 01:35:06;;;;;;;2.08;1.15;;;;;;;20.03;100.00;99053.78;5109352;28;20072;-71
2022/09/15 01:37:38;;;;;;;4.82;1.15;;;;;;;20.01;100.00;99064.72;5108976;28;20027;-71
2022/09/15 01:40:05;;;;;;;3.13;1.75;;;;;;;20.03;100.00;99068.09;5109568;28;20063;-71
2022/09/15 01:42:32;;;;;;;3.22;1.50;;;;;;;20.06;100.00;99064.31;5109312;28;20150;-72
2022/09/15 01:45:04;;;;;;;2.75;1.33;;;;;;;19.99;100.00;99055.88;5082784;28;20031;-72
2022/09/15 01:47:29;;;;;;;3.63;1.23;;;;;;;20.03;100.00;99056.47;5098259;28;20073;-71
2022/09/15 01:50:07;;;;;;;4.43;1.33;;;;;;;20.06;100.00;99057.06;5109374;28;20027;-71
2022/09/15 01:52:33;;;;;;;2.83;1.42;;;;;;;20.07;100.00;99055.22;5090911;28;20051;-71
2022/09/15 01:55:04;;;;;;;4.82;1.17;;;;;;;20.03;100.00;99057.31;5108956;28;20028;-72
2022/09/15 01:57:32;;;;;;;5.38;1.25;;;;;;;19.95;100.00;99045.47;5109171;28;20020;-72
2022/09/15 01:59:58;;;;;;;4.55;1.38;;;;;;;20.02;100.00;99057.44;5109283;28;20038;-71
2022/09/15 02:02:36;;;;;;;4.05;1.80;;;;;;;19.95;100.00;99040.09;5109310;28;20483;-71
2022/09/15 02:05:15;;;;;;;2.38;1.20;;;;;;;19.99;100.00;99065.81;5108989;28;20034;-71
2022/09/15 02:08:04;;;;;;;3.13;1.15;;;;;;;19.98;100.00;99059.56;5107073;28;20031;-72
2022/09/15 02:10:58;;;;;;;3.70;1.05;;;;;;;19.92;100.00;99053.84;5107628;28;20024;-71
2022/09/15 02:13:39;;;;;;;9.23;1.65;;;;;;;19.77;100.00;99039.81;5107072;28;20604;-72
2022/09/15 02:16:14;;;;;;;2.90;1.20;;;;;;;19.86;100.00;99057.06;5106883;28;20028;-71
2022/09/15 02:18:51;;;;;;;8.35;1.40;;;;;;;19.74;100.00;99045.47;5090776;28;20503;-72
2022/09/15 02:21:22;;;;;;;4.57;1.35;;;;;;;19.78;100.00;99057.72;5109092;28;20023;-71
2022/09/15 02:23:52;;;;;;;2.28;1.08;;;;;;;19.74;100.00;99050.88;5108800;28;20056;-72
2022/09/15 02:26:23;;;;;;;5.43;1.20;;;;;;;19.74;100.00;99058.09;5090221;28;20732;-72
2022/09/15 02:28:51;;;;;;;6.57;1.38;;;;;;;19.76;100.00;99065.09;5108665;28;20027;-72
2022/09/15 02:31:21;;;;;;;5.78;1.67;;;;;;;19.77;100.00;99045.19;5108974;28;20093;-71
2022/09/15 02:33:52;;;;;;;5.78;1.10;;;;;;;19.73;100.00;99049.16;5109073;28;20027;-72
2022/09/15 02:36:19;;;;;;;2.15;1.05;;;;;;;19.70;100.00;99054.81;5108917;28;20116;-72
2022/09/15 02:38:52;;;;;;;2.22;1.10;;;;;;;19.71;100.00;99048.44;5094092;28;20020;-71
2022/09/15 02:41:18;;;;;;;4.15;1.30;;;;;;;19.68;100.00;99037.91;5104027;28;20024;-72
2022/09/15 02:43:48;;;;;;;2.58;0.90;;;;;;;19.71;100.00;99051.13;5092759;28;20046;-72
2022/09/15 02:46:18;;;;;;;2.30;1.20;;;;;;;19.72;100.00;99047.44;5092087;28;20024;-72
2022/09/15 02:48:44;;;;;;;1.80;1.00;;;;;;;19.76;100.00;99043.50;5112310;28;20027;-72
2022/09/15 02:51:09;;;;;;;2.83;1.38;;;;;;;19.76;100.00;99040.81;5111487;28;20040;-72
2022/09/15 02:53:35;;;;;;;1.90;0.90;;;;;;;19.79;100.00;99042.38;5111356;28;20094;-72
2022/09/15 02:56:04;;;;;;;3.53;0.93;;;;;;;19.75;100.00;99028.31;5110840;28;20027;-72
2022/09/15 02:58:30;;;;;;;1.70;0.88;;;;;;;19.72;100.00;99028.53;5111065;28;20067;-71
2022/09/15 03:00:56;;;;;;;2.33;1.08;;;;;;;19.77;100.00;99039.81;5110980;28;20077;-71
2022/09/15 03:03:21;;;;;;;3.35;1.38;;;;;;;19.76;100.00;99046.19;5110750;28;20090;-71
2022/09/15 03:05:47;;;;;;;3.67;1.15;;;;;;;19.72;100.00;99025.84;5110964;28;20023;-72
2022/09/15 03:08:13;;;;;;;2.40;1.00;;;;;;;19.78;100.00;99044.22;5093679;28;20485;-71
2022/09/15 03:10:38;;;;;;;3.90;1.30;;;;;;;19.79;100.00;99040.53;5112196;28;20024;-72
2022/09/15 03:13:04;;;;;;;3.05;1.20;;;;;;;19.77;100.00;99041.66;5111942;28;20081;-71
2022/09/15 03:15:29;;;;;;;5.55;0.93;;;;;;;19.66;100.00;99034.47;5093440;28;20157;-72
2022/09/15 03:17:54;;;;;;;3.83;0.98;;;;;;;19.65;100.00;99030.91;5092210;28;20024;-71
2022/09/15 03:20:22;;;;;;;3.53;1.02;;;;;;;19.67;100.00;99044.28;5104477;28;20023;-71
2022/09/15 03:22:48;;;;;;;3.95;1.13;;;;;;;19.65;100.00;99038.16;5088869;28;20060;-71
2022/09/15 03:25:15;;;;;;;1.85;1.00;;;;;;;19.66;100.00;99039.88;5103923;28;20679;-71
2022/09/15 03:27:41;;;;;;;2.60;1.20;;;;;;;19.70;100.00;99038.63;5108596;28;20510;-71
2022/09/15 03:30:07;;;;;;;2.13;1.27;;;;;;;19.71;100.00;99047.56;5109246;28;20227;-71
2022/09/15 03:32:33;;;;;;;3.15;0.80;;;;;;;19.67;100.00;99049.66;5091150;28;20028;-71
2022/09/15 03:34:58;;;;;;;2.28;1.00;;;;;;;19.60;100.00;99035.00;5110296;28;20422;-71
2022/09/15 03:37:24;;;;;;;4.57;1.13;;;;;;;19.65;100.00;99046.25;5110555;28;20034;-71
2022/09/15 03:39:50;;;;;;;2.72;1.20;;;;;;;19.64;100.00;99056.19;5109817;28;20026;-71
2022/09/15 03:42:15;;;;;;;2.55;1.13;;;;;;;19.67;100.00;99061.31;5073698;28;20158;-71
2022/09/15 03:44:40;;;;;;;2.47;1.00;;;;;;;19.72;100.00;99052.81;5073048;28;20023;-71
2022/09/15 03:47:06;;;;;;;2.08;1.42;;;;;;;19.73;100.00;99051.00;5097455;28;20031;-71
2022/09/15 03:49:32;;;;;;;2.75;0.90;;;;;;;19.67;100.00;99034.34;5110239;28;20016;-71
2022/09/15 03:51:57;;;;;;;2.03;1.00;;;;;;;19.74;100.00;99052.69;5092623;28;20038;-71
2022/09/15 03:54:24;;;;;;;2.10;1.10;;;;;;;19.65;100.00;99038.16;5111594;28;20031;-71
2022/09/15 03:56:50;;;;;;;2.53;1.00;;;;;;;19.69;100.00;99034.19;5092435;28;20031;-71
2022/09/15 03:59:20;;;;;;;5.80;1.85;;;;;;;19.72;100.00;99041.19;5111008;28;20031;-71
2022/09/15 04:01:46;;;;;;;3.90;1.10;;;;;;;19.76;100.00;99048.03;5092325;28;20026;-71
2022/09/15 04:04:12;;;;;;;6.93;1.60;;;;;;;19.72;100.00;99046.59;5111011;28;20024;-71
2022/09/15 04:06:38;;;;;;;5.53;1.10;;;;;;;19.74;100.00;99056.25;5111108;28;20028;-71
2022/09/15 04:09:03;;;;;;;2.25;1.05;;;;;;;19.73;100.00;99041.06;5110727;28;20028;-71
2022/09/15 04:11:30;;;;;;;2.13;0.95;;;;;;;19.72;100.00;99047.44;5110991;28;20039;-71
2022/09/15 04:13:55;;;;;;;3.15;0.93;;;;;;;19.74;100.00;99042.78;5110854;28;20509;-71
2022/09/15 04:16:22;;;;;;;2.55;1.20;;;;;;;19.74;100.00;99042.78;5110666;28;20032;-70
2022/09/15 04:18:49;;;;;;;3.40;1.15;;;;;;;19.68;100.00;99035.19;5110166;28;20023;-70
2022/09/15 04:21:18;;;;;;;3.35;1.02;;;;;;;19.71;100.00;99028.69;5110644;28;20032;-70
2022/09/15 04:23:44;;;;;;;4.75;1.13;;;;;;;19.69;100.00;99033.38;5091642;28;20079;-70
2022/09/15 04:26:19;;;;;;;2.65;1.08;;;;;;;19.68;100.00;99024.41;5110636;28;20053;-70
2022/09/15 04:28:45;;;;;;;3.22;1.08;;;;;;;19.69;100.00;99025.28;5110370;28;20391;-70
2022/09/15 04:31:12;;;;;;;2.17;1.20;;;;;;;19.69;100.00;99036.06;5110379;28;20473;-70
2022/09/15 04:33:39;;;;;;;2.90;0.90;;;;;;;19.66;100.00;99034.47;5091806;28;20023;-70
2022/09/15 04:36:11;;;;;;;3.17;1.00;;;;;;;19.64;100.00;99028.34;5110355;28;20027;-70
2022/09/15 04:38:37;;;;;;;5.45;1.20;;;;;;;19.67;100.00;99033.47;5110223;28;20240;-70
2022/09/15 04:41:03;;;;;;;2.55;1.27;;;;;;;19.67;100.00;99027.25;5110433;28;20507;-70
2022/09/15 04:43:29;;;;;;;1.63;1.02;;;;;;;19.58;100.00;99012.69;5110137;28;20140;-70
2022/09/15 04:45:55;;;;;;;2.70;1.00;;;;;;;19.54;100.00;99016.63;5109890;28;20099;-70
2022/09/15 04:48:22;;;;;;;11.63;1.20;;;;;;;19.63;100.00;99037.44;5109920;28;20114;-70
2022/09/15 04:50:47;;;;;;;4.60;1.00;;;;;;;19.59;100.00;99027.88;5104421;28;20028;-70
2022/09/15 04:53:13;;;;;;;3.38;1.30;;;;;;;19.63;100.00;99037.44;5089663;28;20105;-70
2022/09/15 04:55:39;;;;;;;5.88;1.60;;;;;;;19.67;100.00;99038.88;5089631;28;20055;-70
2022/09/15 04:58:05;;;;;;;1.75;1.30;;;;;;;19.65;100.00;99036.31;5105848;28;20463;-69
2022/09/15 05:00:33;;;;;;;2.88;1.02;;;;;;;19.68;100.00;99046.00;5109549;28;20043;-69
2022/09/15 05:02:59;;;;;;;3.90;1.10;;;;;;;19.70;100.00;99044.03;5109799;28;20072;-69
2022/09/15 05:05:25;;;;;;;3.53;1.10;;;;;;;19.67;100.00;99039.75;5109718;28;20023;-70
2022/09/15 05:07:51;;;;;;;2.67;1.33;;;;;;;19.68;100.00;99035.19;5109752;28;20030;-70
2022/09/15 05:10:18;;;;;;;4.15;1.40;;;;;;;19.69;100.00;99047.69;5091603;28;20020;-69
2022/09/15 05:12:44;;;;;;;4.85;1.48;;;;;;;19.67;100.00;99038.03;5110118;28;20103;-68
2022/09/15 05:15:10;;;;;;;3.08;1.15;;;;;;;19.67;100.00;99038.03;5110414;28;20023;-68
2022/09/15 05:17:35;;;;;;;2.00;1.00;;;;;;;19.59;100.00;99033.28;5111646;28;20029;-68
2022/09/15 05:20:01;;;;;;;3.60;1.20;;;;;;;19.61;100.00;99039.41;5111589;28;20522;-69
2022/09/15 05:22:27;;;;;;;2.80;1.20;;;;;;;19.63;100.00;99045.53;5110814;28;20039;-69
2022/09/15 05:24:53;;;;;;;5.85;1.33;;;;;;;19.59;100.00;99044.94;5109073;28;20034;-68
2022/09/15 05:27:18;;;;;;;8.70;2.17;;;;;;;19.64;100.00;99055.31;5108177;28;20019;-69
2022/09/15 05:29:44;;;;;;;5.93;2.08;;;;;;;19.67;100.00;99059.63;5104807;28;20552;-70
2022/09/15 05:32:10;;;;;;;3.08;1.33;;;;;;;19.63;100.00;99072.50;5102331;28;20039;-69
2022/09/15 05:34:35;;;;;;;3.60;1.88;;;;;;;19.59;100.00;99069.22;5099694;28;20020;-70
2022/09/15 05:37:01;;;;;;;4.30;1.30;;;;;;;19.60;100.00;99091.66;5096426;28;20024;-69
2022/09/15 05:39:27;;;;;;;3.78;1.23;;;;;;;19.58;100.00;99082.84;5089726;28;20055;-69
2022/09/15 05:41:52;;;;;;;4.75;1.17;;;;;;;19.57;100.00;99086.53;5071167;28;20062;-69
2022/09/15 05:44:17;;;;;;;2.60;1.17;;;;;;;19.61;100.00;99087.97;5090474;28;20046;-70
2022/09/15 05:46:43;;;;;;;1.67;1.00;;;;;;;19.60;100.00;99073.59;5074818;28;20391;-70
2022/09/15 05:49:10;;;;;;;3.83;1.30;;;;;;;19.57;100.00;99083.81;5110326;28;20041;-70
2022/09/15 05:51:35;;;;;;;2.88;1.40;;;;;;;19.49;100.00;99072.78;5104353;28;20046;-69
2022/09/15 05:54:01;;;;;;;6.40;1.13;;;;;;;19.60;100.00;99091.66;5094104;28;20452;-69
2022/09/15 05:56:26;;;;;;;3.45;1.38;;;;;;;19.60;100.00;99075.47;5093150;28;20511;-69
2022/09/15 05:58:52;;;;;;;8.48;1.70;;;;;;;19.76;100.00;99096.59;5109132;28;20035;-69
2022/09/15 06:01:20;;;;;;;3.17;1.30;;;;;;;19.74;100.00;99091.34;5109227;28;20022;-70
2022/09/15 06:03:46;;;;;;;6.13;1.30;;;;;;;19.66;100.00;99085.75;5090692;28;20024;-69
2022/09/15 06:06:12;;;;;;;3.85;1.45;;;;;;;19.80;100.00;99092.69;5110512;28;20356;-69
2022/09/15 06:08:43;;;;;;;5.07;1.67;;;;;;;19.80;100.00;99093.53;5113482;28;20099;-69
2022/09/15 06:11:17;;;;;;;3.33;1.30;;;;;;;19.75;100.00;99092.22;5112005;28;20016;-68
2022/09/15 06:13:43;;;;;;;3.20;1.45;;;;;;;19.71;100.00;99107.78;5117599;28;20028;-69
2022/09/15 06:16:12;;;;;;;5.03;1.10;;;;;;;19.72;100.00;99120.28;5125654;28;20471;-68
2022/09/15 06:18:39;;;;;;;2.53;1.55;;;;;;;19.69;100.00;99115.16;5086441;28;20028;-68
2022/09/15 06:21:10;;;;;;;4.53;1.45;;;;;;;19.67;100.00;99121.69;5094241;28;20032;-69
2022/09/15 06:23:36;;;;;;;3.33;1.13;;;;;;;19.63;100.00;99123.78;5095491;28;20388;-69
2022/09/15 06:26:10;;;;;;;2.28;1.10;;;;;;;19.65;100.00;99121.81;5112175;28;20031;-69
2022/09/15 06:28:37;;;;;;;3.25;0.98;;;;;;;19.66;100.00;99123.50;5120747;28;20051;-68
2022/09/15 06:31:03;;;;;;;2.95;1.33;;;;;;;19.67;100.00;99130.59;5114538;28;20379;-68
2022/09/15 06:33:29;;;;;;;3.70;1.35;;;;;;;19.57;100.00;99118.91;5114973;28;20035;-71
2022/09/15 06:35:54;;;;;;;3.33;1.63;;;;;;;19.67;100.00;99136.88;5113020;28;20020;-70
2022/09/15 06:38:19;;;;;;;2.97;1.30;;;;;;;19.63;100.00;99137.25;5114978;28;20023;-71
2022/09/15 06:40:57;;;;;;;2.03;0.98;;;;;;;19.60;100.00;99129.44;5117234;28;20039;-77
2022/09/15 06:43:22;;;;;;;2.78;1.50;;;;;;;19.63;100.00;99134.56;5099463;28;20032;-71
2022/09/15 06:45:48;;;;;;;3.05;1.38;;;;;;;19.64;100.00;99137.13;5112613;28;20023;-71
2022/09/15 06:48:13;;;;;;;5.18;1.55;;;;;;;19.66;100.00;99137.00;5096016;28;20052;-69
2022/09/15 06:50:38;;;;;;;5.75;1.80;;;;;;;19.65;100.00;99138.00;5114156;28;20051;-72
2022/09/15 06:53:04;;;;;;;4.45;1.50;;;;;;;19.66;100.00;99139.69;5110920;28;20485;-68
2022/09/15 06:55:29;;;;;;;3.67;1.45;;;;;;;19.67;100.00;99141.41;5091746;28;20020;-70
2022/09/15 06:57:54;;;;;;;2.72;1.83;;;;;;;19.65;100.00;99141.53;5106513;28;20067;-71
2022/09/15 07:00:20;;;;;;;15.80;2.20;;;;;;;19.63;100.00;99129.16;5112031;28;20023;-70
2022/09/15 07:02:49;;;;;;;4.78;1.30;;;;;;;19.61;100.00;99128.44;5112500;28;20447;-72
2022/09/15 07:05:14;;;;;;;5.70;1.90;;;;;;;19.66;100.00;99134.31;5111849;28;20066;-69
2022/09/15 07:07:40;;;;;;;5.28;1.42;;;;;;;19.64;100.00;99141.66;5111907;28;20091;-68
2022/09/15 07:10:06;;;;;;;2.70;1.33;;;;;;;19.63;100.00;99123.78;5111756;28;20475;-70
2022/09/15 07:12:31;;;;;;;4.18;1.40;;;;;;;19.63;100.00;99131.88;5111956;28;20036;-72
2022/09/15 07:14:57;;;;;;;4.82;1.80;;;;;;;19.65;100.00;99138.84;5111989;28;20028;-70
2022/09/15 07:17:22;;;;;;;2.67;1.15;;;;;;;19.66;100.00;99142.41;5111871;28;20031;-68
2022/09/15 07:19:48;;;;;;;3.95;1.38;;;;;;;19.64;100.00;99145.22;5111617;28;20023;-71
2022/09/15 07:22:13;;;;;;;6.15;1.40;;;;;;;19.64;100.00;99145.22;5103520;28;20540;-74
2022/09/15 07:24:39;;;;;;;6.53;1.40;;;;;;;19.65;100.00;99143.41;5091430;28;20028;-72
2022/09/15 07:27:05;;;;;;;3.38;1.08;;;;;;;19.55;100.00;99142.44;5102666;28;20019;-73
2022/09/15 07:29:30;;;;;;;3.20;1.20;;;;;;;19.51;100.00;99135.56;5092972;28;20443;-73
2022/09/15 07:31:56;;;;;;;2.85;1.00;;;;;;;19.47;100.00;99134.13;5113108;28;20028;-72
2022/09/15 07:34:21;;;;;;;2.85;1.05;;;;;;;19.53;100.00;99149.81;5107245;28;20020;-72
2022/09/15 07:36:47;;;;;;;3.95;1.30;;;;;;;19.50;100.00;99132.00;5128800;28;20032;-71
2022/09/15 07:39:13;;;;;;;5.22;1.67;;;;;;;19.60;100.00;99153.72;5122212;28;20050;-70
2022/09/15 07:41:38;;;;;;;2.85;1.70;;;;;;;19.62;100.00;99149.03;5116809;28;20038;-70
2022/09/15 07:44:06;;;;;;;5.38;1.02;;;;;;;19.62;100.00;99155.28;5116415;28;20030;-69
2022/09/15 07:46:32;;;;;;;1.42;0.80;;;;;;;19.59;100.00;99141.19;5114024;28;20020;-68
2022/09/15 07:48:59;;;;;;;2.97;0.98;;;;;;;19.69;100.00;99152.09;5112169;28;20127;-68
2022/09/15 07:51:25;;;;;;;2.70;1.23;;;;;;;19.75;100.00;99155.13;5109319;28;20096;-67
2022/09/15 07:53:51;;;;;;;2.00;1.00;;;;;;;19.76;100.00;99148.75;5112577;28;20475;-68
2022/09/15 07:56:17;;;;;;;3.30;1.55;;;;;;;19.84;100.00;99158.88;5112492;28;20039;-68
2022/09/15 07:58:46;;;;;;;3.28;0.98;;;;;;;19.86;100.00;99160.50;5104916;28;20035;-68
2022/09/15 08:01:15;;;;;;;1.88;1.10;;;;;;;19.93;100.00;99158.13;5091994;28;20118;-68
2022/09/15 08:03:47;;;;;;;2.45;1.20;;;;;;;19.94;100.00;99149.91;5092610;28;20036;-68
2022/09/15 08:06:13;;;;;;;3.28;1.23;;;;;;;20.08;100.00;99163.06;5092452;28;20020;-68
2022/09/15 08:08:40;;;;;;;1.45;1.00;;;;;;;20.06;100.00;99165.06;5091627;28;20035;-68
2022/09/15 08:11:09;;;;;;;2.55;1.08;;;;;;;20.05;100.00;99152.53;5092012;28;20145;-69
2022/09/15 08:13:35;;;;;;;1.70;0.90;;;;;;;20.13;100.00;99163.53;5092432;28;20174;-68
2022/09/15 08:16:09;;;;;;;2.38;1.13;;;;;;;20.19;100.00;99165.78;5091439;28;20119;-68
2022/09/15 08:18:35;;;;;;;1.98;1.20;;;;;;;20.30;100.00;99164.84;5091987;28;20031;-68
2022/09/15 08:21:09;;;;;;;2.17;1.05;;;;;;;20.38;100.00;99160.50;5092305;28;20024;-68
2022/09/15 08:23:35;;;;;;;2.78;0.98;;;;;;;20.42;100.00;99167.34;5092613;28;20138;-68
2022/09/15 08:26:01;;;;;;;6.68;1.25;;;;;;;20.50;100.00;99162.16;5092804;28;20107;-68
2022/09/15 08:28:26;;;;;;;3.58;1.27;;;;;;;20.54;100.00;99166.28;5092627;28;20028;-68
2022/09/15 08:31:03;;;;;;;1.45;1.10;;;;;;;20.55;100.00;99162.59;5109588;28;20028;-68
2022/09/15 08:33:29;;;;;;;3.80;1.30;;;;;;;20.58;100.00;99172.28;5113619;28;20023;-68
2022/09/15 08:36:00;;;;;;;4.43;1.17;;;;;;;20.64;100.00;99178.00;5094294;28;20038;-68
2022/09/15 08:38:26;;;;;;;3.05;1.30;;;;;;;20.62;100.00;99171.03;5113723;28;20153;-68
2022/09/15 08:40:59;;;;;;;3.72;1.02;;;;;;;20.70;100.00;99173.91;5111958;28;20617;-68
2022/09/15 08:43:27;;;;;;;4.85;0.95;;;;;;;20.74;100.00;99162.69;5112282;28;20036;-68
2022/09/15 08:46:03;;;;;;;1.25;0.80;;;;;;;20.84;100.00;99173.56;5111763;28;20359;-68
2022/09/15 08:48:39;;;;;;;1.98;1.10;;;;;;;20.71;100.00;99179.19;5086581;28;20024;-67
2022/09/15 08:51:10;;;;;;;5.43;2.42;;;;;;;20.72;100.00;99194.41;5091060;28;20024;-68
2022/09/15 08:53:51;;;;;;;2.53;1.10;;;;;;;20.70;100.00;99193.72;5091488;28;20711;-68
2022/09/15 08:56:18;;;;;;;4.50;1.23;;;;;;;20.69;100.00;99197.38;5091429;28;20039;-68
2022/09/15 08:58:47;;;;;;;6.10;1.40;;;;;;;20.62;100.00;99201.63;5102243;28;20051;-67
2022/09/15 09:01:39;;;;;;;2.20;1.20;;;;;;;20.55;100.00;99208.53;5089589;28;20016;-67
2022/09/15 09:04:23;;;;;;;6.57;1.88;;;;;;;20.50;100.00;99213.47;5089493;28;20043;-71
2022/09/15 09:07:12;;;;;;;2.80;1.25;;;;;;;20.39;100.00;99208.16;5089420;28;20020;-71
2022/09/15 09:09:48;;;;;;;3.60;1.17;;;;;;;20.37;100.00;99217.34;5089231;28;20028;-68
2022/09/15 09:12:39;;;;;;;2.72;1.38;;;;;;;20.26;100.00;99203.91;5089177;28;20543;-70
2022/09/15 09:15:14;;;;;;;3.95;1.38;;;;;;;20.33;100.00;99222.16;5089494;28;20107;-73
2022/09/15 09:17:58;;;;;;;3.53;1.45;;;;;;;20.27;100.00;99217.28;5090414;28;20031;-73
2022/09/15 09:20:37;;;;;;;2.65;1.20;;;;;;;20.30;100.00;99227.81;5103688;28;20032;-67
2022/09/15 09:23:07;;;;;;;3.97;1.30;;;;;;;20.38;100.00;99241.53;5109711;28;20402;-68
2022/09/15 09:25:34;;;;;;;3.92;1.50;;;;;;;20.41;100.00;99254.78;5089260;28;20024;-68
2022/09/15 09:28:00;;;;;;;1.58;0.90;;;;;;;20.31;100.00;99264.63;5090778;28;20028;-68
2022/09/15 09:30:29;;;;;;;2.42;0.70;;;;;;;19.67;100.00;99271.78;5109496;28;20031;-68
2022/09/15 09:33:23;;;;;;;1.80;0.50;;;;;;;19.33;100.00;99277.31;5109201;28;20399;-68
2022/09/15 09:35:52;;;;;;;1.17;0.55;;;;;;;18.99;100.00;99272.88;5109115;28;20123;-70
2022/09/15 09:38:39;;;;;;;5.40;1.25;;;;;;;18.69;100.00;99275.25;5109286;28;20781;-72
2022/09/15 09:41:13;;;;;;;1.67;0.90;;;;;;;18.22;100.00;99260.84;5109381;28;20030;-70
2022/09/15 09:43:41;;;;;;;3.97;1.17;;;;;;;17.97;100.00;99273.59;5107601;28;20527;-75
2022/09/15 09:46:16;;;;;;;2.88;1.48;;;;;;;17.85;100.00;99283.44;5107257;28;20034;-69
2022/09/15 09:48:55;;;;;;;2.58;1.20;;;;;;;17.72;100.00;99261.09;5111569;28;20110;-71
2022/09/15 09:51:50;;;;;;;2.38;1.02;;;;;;;17.78;100.00;99276.78;5111506;28;20051;-71
2022/09/15 09:54:19;;;;;;;2.80;1.08;;;;;;;17.60;100.00;99275.44;5092905;28;20497;-70
2022/09/15 09:56:46;;;;;;;2.72;1.20;;;;;;;17.58;100.00;99271.97;5111132;28;20387;-70
2022/09/15 09:59:37;;;;;;;2.22;1.25;;;;;;;17.59;100.00;99284.47;5108487;28;20023;-71
2022/09/15 10:02:03;;;;;;;3.47;1.67;;;;;;;17.65;100.00;99278.66;5113285;28;20031;-70
2022/09/15 10:04:29;;;;;;;4.93;2.03;;;;;;;17.63;100.00;99280.56;5113972;28;20106;-70
2022/09/15 10:06:55;;;;;;;4.38;2.00;;;;;;;17.69;100.00;99272.03;5113008;28;20139;-69
2022/09/15 10:09:20;;;;;;;4.22;2.10;;;;;;;17.78;100.00;99271.38;5112775;28;20051;-69
2022/09/15 10:11:50;;;;;;;3.30;2.38;;;;;;;17.91;100.00;99274.88;5112077;28;20390;-69
2022/09/15 10:14:27;;;;;;;3.47;2.05;;;;;;;17.98;100.00;99276.16;5112072;28;20052;-69
2022/09/15 10:17:07;;;;;;;3.90;2.13;;;;;;;17.98;100.00;99277.97;5110564;28;20027;-69
2022/09/15 10:19:43;;;;;;;7.72;2.65;;;;;;;18.05;100.00;99285.50;5110699;28;20023;-70
2022/09/15 10:22:19;;;;;;;4.15;2.30;;;;;;;18.05;100.00;99301.66;5110395;28;20031;-69
2022/09/15 10:24:45;;;;;;;14.95;6.07;;;;;;;18.15;100.00;99302.66;5111089;28;20020;-70
2022/09/15 10:27:18;;;;;;;6.28;2.90;;;;;;;18.27;100.00;99304.44;5111093;28;20492;-70
2022/09/15 10:29:43;;;;;;;4.90;2.25;;;;;;;18.37;100.00;99318.94;5111269;28;20047;-70
2022/09/15 10:32:15;;;;;;;4.03;1.80;;;;;;;18.36;100.00;99319.91;5113200;28;20185;-70
2022/09/15 10:34:41;;;;;;;3.58;2.03;;;;;;;18.23;100.00;99315.56;5113134;28;20031;-70
2022/09/15 10:37:36;;;;;;;4.70;2.05;;;;;;;18.06;100.00;99324.03;5094939;28;20390;-70
2022/09/15 10:40:39;;;;;;;7.05;3.58;;;;;;;17.92;100.00;99316.97;5112751;28;20035;-70
2022/09/15 10:43:20;;;;;;;9.10;5.57;;;;;;;17.88;100.00;99310.09;5112956;28;20043;-70
2022/09/15 10:45:58;;;;;;;8.45;5.05;;;;;;;18.08;100.00;99328.34;5112789;28;20030;-70
2022/09/15 10:48:41;;;;;;;7.00;5.05;;;;;;;18.26;100.00;99331.47;5094159;28;20023;-71
2022/09/15 10:51:27;;;;;;;5.90;4.28;;;;;;;18.44;100.00;99330.13;5110094;28;20024;-70
2022/09/15 10:54:14;;;;;;;6.65;3.95;;;;;;;18.50;100.00;99340.44;5074487;28;20032;-70
2022/09/15 10:56:43;;;;;;;8.80;3.60;;;;;;;18.50;100.00;99340.44;5097663;28;20034;-70
2022/09/15 10:59:31;;;;;;;11.15;4.57;;;;;;;18.56;100.00;99337.31;5103655;28;20042;-71
2022/09/15 11:02:37;;;;;;;8.27;3.80;;;;;;;18.74;100.00;99343.13;5093905;28;20054;-70
2022/09/15 11:05:39;;;;;;;7.15;3.38;;;;;;;18.85;100.00;99341.31;5096679;28;20722;-71
2022/09/15 11:08:32;;;;;;;4.75;3.00;;;;;;;19.06;100.00;99360.38;5097042;28;20032;-71
2022/09/15 11:11:19;;;;;;;5.47;3.10;;;;;;;19.23;100.00;99358.06;5099756;28;20028;-71
2022/09/15 11:14:16;;;;;;;6.22;3.10;;;;;;;19.38;100.00;99364.13;5109401;28;20036;-70
2022/09/15 11:16:56;;;;;;;5.60;3.03;;;;;;;19.27;100.00;99366.78;5126376;28;20023;-71
2022/09/15 11:19:41;;;;;;;4.47;2.85;;;;;;;19.15;100.00;99370.44;5128984;28;20073;-71
2022/09/15 11:22:10;;;;;;;8.65;3.83;;;;;;;19.26;100.00;99383.94;5117521;28;20035;-71
2022/09/15 11:24:46;;;;;;;10.77;4.35;;;;;;;19.28;100.00;99377.44;5123246;28;20060;-71
2022/09/15 11:27:32;;;;;;;5.53;2.95;;;;;;;19.37;100.00;99375.91;5113207;28;20019;-71
2022/09/15 11:30:04;;;;;;;7.13;3.13;;;;;;;19.58;100.00;99374.22;5130516;28;20030;-71
2022/09/15 11:32:45;;;;;;;6.30;3.00;;;;;;;19.90;100.00;99385.97;5131357;28;20028;-71
2022/09/15 11:35:35;;;;;;;5.97;2.97;;;;;;;20.10;100.00;99385.22;5128028;28;20023;-71
2022/09/15 11:38:46;;;;;;;6.25;3.92;;;;;;;20.54;99.63;99366.25;5125394;28;20034;-71
2022/09/15 11:41:18;;;;;;;6.93;2.58;;;;;;;21.49;95.55;99392.34;5123186;28;20023;-71
2022/09/15 11:44:05;;;;;;;7.20;3.08;;;;;;;21.84;92.26;99400.97;5120200;28;20638;-71